DLH64CK LIRF-EDDM
Flight info
| Callsign | DLH64CK |
|---|---|
| Flight time | N/A |
| Altitude | 36000 |
| Route | SOSIV5AXSOVAN1E/25 SOVAN DCT AMTEL DCT NAXAV DCT SOTOV T101 BETOS |
| Aircraft | A320/M-SDE3FGHIRWY/LB1 |
Departure
| Time | 2026-05-01 13:07 |
|---|---|
| Airport | Rome–Fiumicino Leonardo da Vinci International Airport (LIRF) |
Arrival
| Time | N/A |
|---|---|
| Airport | Munich Airport (EDDM) |
| Time | Latitude | Longitude | Altitude | Speed | Heading |
|---|---|---|---|---|---|
| 2026-05-01 12:07 | 41.79835 | 12.25169 | 14 ft | 0 kts | 115° |
| 2026-05-01 12:33 | 41.79835 | 12.25168 | 14 ft | 0 kts | 115° |
| 2026-05-01 12:56 | 41.79842 | 12.25150 | 14 ft | 3 kts | 115° |
| 2026-05-01 12:56 | 41.79850 | 12.25126 | 17 ft | 2 kts | 115° |
| 2026-05-01 12:56 | 41.79858 | 12.25099 | 15 ft | 3 kts | 98° |
| 2026-05-01 12:57 | 41.79858 | 12.25070 | 15 ft | 3 kts | 66° |
| 2026-05-01 12:57 | 41.79857 | 12.25056 | 14 ft | 3 kts | 25° |
| 2026-05-01 12:57 | 41.79877 | 12.25069 | 16 ft | 3 kts | 25° |
| 2026-05-01 12:58 | 41.79898 | 12.25082 | 14 ft | 3 kts | 25° |
| 2026-05-01 12:58 | 41.79919 | 12.25095 | 15 ft | 3 kts | 25° |
| 2026-05-01 12:58 | 41.79939 | 12.25108 | 14 ft | 3 kts | 25° |
| 2026-05-01 12:59 | 41.79951 | 12.25115 | 15 ft | 3 kts | 25° |
| 2026-05-01 13:01 | 41.79964 | 12.25123 | 15 ft | 5 kts | 22° |
| 2026-05-01 13:01 | 41.80009 | 12.25149 | 14 ft | 9 kts | 24° |
| 2026-05-01 13:01 | 41.80113 | 12.25287 | 14 ft | 13 kts | 74° |
| 2026-05-01 13:02 | 41.80168 | 12.25387 | 14 ft | 14 kts | 35° |
| 2026-05-01 13:07 | 41.78801 | 12.20224 | 1605 ft | 197 kts | 252° |
| 2026-05-01 13:07 | 41.78580 | 12.18328 | 1889 ft | 214 kts | 279° |
| 2026-05-01 13:07 | 41.78989 | 12.16505 | 2689 ft | 203 kts | 302° |
| 2026-05-01 13:08 | 41.79882 | 12.15047 | 3298 ft | 203 kts | 320° |
| 2026-05-01 13:08 | 41.80939 | 12.13775 | 3958 ft | 204 kts | 322° |
| 2026-05-01 13:08 | 41.82000 | 12.12514 | 4617 ft | 204 kts | 321° |
| 2026-05-01 13:08 | 41.83071 | 12.11204 | 5164 ft | 211 kts | 321° |
| 2026-05-01 13:09 | 41.84287 | 12.10115 | 5887 ft | 210 kts | 342° |
| 2026-05-01 13:09 | 41.85732 | 12.09565 | 6267 ft | 225 kts | 352° |
| 2026-05-01 13:09 | 41.87352 | 12.09120 | 6578 ft | 250 kts | 350° |
| 2026-05-01 13:09 | 41.89080 | 12.08564 | 7137 ft | 264 kts | 348° |
| 2026-05-01 13:10 | 41.90898 | 12.07927 | 7950 ft | 268 kts | 348° |
| 2026-05-01 13:10 | 41.92686 | 12.07274 | 8784 ft | 271 kts | 348° |
| 2026-05-01 13:10 | 41.94515 | 12.06594 | 9656 ft | 273 kts | 347° |
| 2026-05-01 13:10 | 41.96372 | 12.06069 | 10500 ft | 274 kts | 358° |
| 2026-05-01 13:11 | 41.98328 | 12.05838 | 10908 ft | 293 kts | 357° |
| 2026-05-01 13:11 | 42.00436 | 12.05540 | 11258 ft | 311 kts | 356° |
| 2026-05-01 13:11 | 42.02611 | 12.05202 | 11934 ft | 317 kts | 356° |
| 2026-05-01 13:11 | 42.04808 | 12.04855 | 12695 ft | 319 kts | 355° |
| 2026-05-01 13:12 | 42.07027 | 12.04505 | 13460 ft | 321 kts | 355° |
| 2026-05-01 13:12 | 42.09246 | 12.04158 | 14221 ft | 323 kts | 355° |
| 2026-05-01 13:12 | 42.11486 | 12.03809 | 14896 ft | 324 kts | 356° |
| 2026-05-01 13:12 | 42.13739 | 12.03459 | 15544 ft | 326 kts | 356° |
| 2026-05-01 13:13 | 42.15998 | 12.03112 | 16209 ft | 327 kts | 356° |
| 2026-05-01 13:13 | 42.18235 | 12.02772 | 16845 ft | 329 kts | 356° |
| 2026-05-01 13:13 | 42.20521 | 12.02425 | 17431 ft | 332 kts | 357° |
| 2026-05-01 13:13 | 42.22849 | 12.02068 | 18105 ft | 333 kts | 357° |
| 2026-05-01 13:14 | 42.25134 | 12.01714 | 18707 ft | 335 kts | 357° |
| 2026-05-01 13:14 | 42.27455 | 12.01352 | 19278 ft | 336 kts | 357° |
| 2026-05-01 13:14 | 42.29784 | 12.00990 | 19839 ft | 337 kts | 357° |
| 2026-05-01 13:14 | 42.32119 | 12.00629 | 20407 ft | 338 kts | 358° |
| 2026-05-01 13:15 | 42.34468 | 12.00267 | 20953 ft | 340 kts | 358° |
| 2026-05-01 13:15 | 42.36821 | 11.99906 | 21497 ft | 341 kts | 358° |
| 2026-05-01 13:15 | 42.39183 | 11.99545 | 22034 ft | 342 kts | 358° |
| 2026-05-01 13:15 | 42.41554 | 11.99183 | 22576 ft | 344 kts | 358° |
| 2026-05-01 13:16 | 42.43930 | 11.98818 | 23088 ft | 345 kts | 359° |
| 2026-05-01 13:16 | 42.46330 | 11.98447 | 23588 ft | 347 kts | 359° |
| 2026-05-01 13:16 | 42.48737 | 11.98075 | 24019 ft | 349 kts | 359° |
| 2026-05-01 13:17 | 42.56045 | 11.96941 | 25182 ft | 355 kts | 358° |
| 2026-05-01 13:17 | 42.58503 | 11.96559 | 25553 ft | 357 kts | 358° |
| 2026-05-01 13:18 | 42.63477 | 11.95783 | 26297 ft | 361 kts | 358° |
| 2026-05-01 13:18 | 42.65988 | 11.95392 | 26662 ft | 363 kts | 358° |
| 2026-05-01 13:18 | 42.68476 | 11.95004 | 27021 ft | 366 kts | 358° |
| 2026-05-01 13:18 | 42.71011 | 11.94608 | 27393 ft | 368 kts | 358° |
| 2026-05-01 13:19 | 42.73560 | 11.94211 | 27756 ft | 370 kts | 358° |
| 2026-05-01 13:19 | 42.76128 | 11.93816 | 28102 ft | 371 kts | 358° |
| 2026-05-01 13:19 | 42.81292 | 11.93018 | 28806 ft | 375 kts | 358° |
| 2026-05-01 13:20 | 42.83896 | 11.92611 | 29139 ft | 378 kts | 358° |
| 2026-05-01 13:20 | 42.86521 | 11.92197 | 29477 ft | 380 kts | 358° |
| 2026-05-01 13:20 | 42.89154 | 11.91780 | 29815 ft | 382 kts | 358° |
| 2026-05-01 13:21 | 42.94463 | 11.90943 | 30422 ft | 386 kts | 358° |
| 2026-05-01 13:21 | 42.97139 | 11.90528 | 30672 ft | 388 kts | 358° |
| 2026-05-01 13:21 | 42.99830 | 11.90112 | 30912 ft | 390 kts | 358° |
| 2026-05-01 13:21 | 43.02535 | 11.89688 | 31164 ft | 392 kts | 358° |
| 2026-05-01 13:22 | 43.05251 | 11.89254 | 31425 ft | 393 kts | 358° |
| 2026-05-01 13:22 | 43.07966 | 11.88818 | 31775 ft | 392 kts | 357° |
| 2026-05-01 13:22 | 43.10639 | 11.88391 | 32121 ft | 391 kts | 357° |
| 2026-05-01 13:22 | 43.13378 | 11.87957 | 32473 ft | 391 kts | 357° |
| 2026-05-01 13:23 | 43.16039 | 11.87539 | 32810 ft | 390 kts | 357° |
| 2026-05-01 13:23 | 43.18732 | 11.87118 | 33132 ft | 389 kts | 357° |
| 2026-05-01 13:23 | 43.21422 | 11.86695 | 33470 ft | 389 kts | 357° |
| 2026-05-01 13:23 | 43.24113 | 11.86270 | 33819 ft | 388 kts | 357° |
| 2026-05-01 13:24 | 43.26792 | 11.85843 | 34150 ft | 387 kts | 357° |
| 2026-05-01 13:24 | 43.29470 | 11.85417 | 34460 ft | 386 kts | 356° |
| 2026-05-01 13:24 | 43.32135 | 11.84995 | 34722 ft | 386 kts | 356° |
| 2026-05-01 13:25 | 43.37478 | 11.84146 | 35203 ft | 387 kts | 356° |
| 2026-05-01 13:25 | 43.40153 | 11.83714 | 35426 ft | 387 kts | 356° |
| 2026-05-01 13:25 | 43.42836 | 11.83283 | 35652 ft | 387 kts | 356° |
| 2026-05-01 13:25 | 43.45480 | 11.82862 | 35860 ft | 388 kts | 356° |
| 2026-05-01 13:26 | 43.48162 | 11.82437 | 36088 ft | 388 kts | 355° |
| 2026-05-01 13:26 | 43.50845 | 11.82009 | 36264 ft | 389 kts | 355° |
| 2026-05-01 13:26 | 43.53520 | 11.81580 | 36310 ft | 386 kts | 355° |
| 2026-05-01 13:27 | 43.58847 | 11.80722 | 36313 ft | 385 kts | 355° |
| 2026-05-01 13:27 | 43.66809 | 11.79451 | 36316 ft | 385 kts | 355° |
| 2026-05-01 13:28 | 43.74812 | 11.78159 | 36322 ft | 386 kts | 355° |
| 2026-05-01 13:29 | 43.84586 | 11.76575 | 36315 ft | 387 kts | 355° |
| 2026-05-01 13:31 | 44.00667 | 11.73971 | 36315 ft | 391 kts | 355° |
| 2026-05-01 13:32 | 44.14223 | 11.71760 | 36322 ft | 394 kts | 355° |
| 2026-05-01 13:33 | 44.27885 | 11.69518 | 36330 ft | 396 kts | 355° |
| 2026-05-01 13:34 | 44.38847 | 11.67720 | 36342 ft | 398 kts | 355° |
| 2026-05-01 13:35 | 44.47106 | 11.66369 | 36343 ft | 399 kts | 355° |
| 2026-05-01 13:36 | 44.55384 | 11.64985 | 36346 ft | 399 kts | 355° |
| 2026-05-01 13:36 | 44.63634 | 11.63606 | 36348 ft | 400 kts | 355° |
| 2026-05-01 13:37 | 44.69166 | 11.62697 | 36347 ft | 400 kts | 355° |
| 2026-05-01 13:37 | 44.74702 | 11.61777 | 36346 ft | 401 kts | 355° |
| 2026-05-01 13:38 | 44.83020 | 11.60378 | 36347 ft | 401 kts | 355° |
| 2026-05-01 13:39 | 44.88561 | 11.59446 | 36348 ft | 401 kts | 355° |
| 2026-05-01 13:39 | 44.94114 | 11.58515 | 36351 ft | 402 kts | 355° |
| 2026-05-01 13:40 | 44.99669 | 11.57591 | 36351 ft | 402 kts | 355° |
| 2026-05-01 13:40 | 45.05234 | 11.56653 | 36347 ft | 402 kts | 355° |
| 2026-05-01 13:41 | 45.10771 | 11.55716 | 36356 ft | 403 kts | 355° |
| 2026-05-01 13:41 | 45.16349 | 11.54777 | 36359 ft | 403 kts | 355° |
| 2026-05-01 13:42 | 45.21919 | 11.53836 | 36360 ft | 403 kts | 355° |
| 2026-05-01 13:42 | 45.27493 | 11.52880 | 36361 ft | 404 kts | 355° |
| 2026-05-01 13:43 | 45.33071 | 11.51923 | 36367 ft | 404 kts | 355° |
| 2026-05-01 13:43 | 45.38661 | 11.50968 | 36367 ft | 404 kts | 355° |
| 2026-05-01 13:44 | 45.44242 | 11.50025 | 36365 ft | 405 kts | 355° |
| 2026-05-01 13:44 | 45.49836 | 11.49066 | 36370 ft | 405 kts | 355° |
| 2026-05-01 13:45 | 45.55401 | 11.48107 | 36365 ft | 405 kts | 355° |
| 2026-05-01 13:45 | 45.61001 | 11.47144 | 36351 ft | 405 kts | 355° |
| 2026-05-01 13:46 | 45.66607 | 11.46180 | 36342 ft | 406 kts | 355° |
| 2026-05-01 13:46 | 45.72224 | 11.45214 | 36350 ft | 406 kts | 355° |
| 2026-05-01 13:47 | 45.77857 | 11.44240 | 36342 ft | 407 kts | 355° |
| 2026-05-01 13:47 | 45.83479 | 11.43263 | 36348 ft | 407 kts | 355° |
| 2026-05-01 13:48 | 45.89073 | 11.42297 | 36338 ft | 408 kts | 355° |
| 2026-05-01 13:48 | 45.94708 | 11.41308 | 36338 ft | 408 kts | 355° |
| 2026-05-01 13:49 | 46.00355 | 11.40316 | 36328 ft | 408 kts | 355° |
| 2026-05-01 13:49 | 46.06007 | 11.39337 | 36331 ft | 409 kts | 355° |
| 2026-05-01 13:50 | 46.11662 | 11.38364 | 36331 ft | 409 kts | 355° |
| 2026-05-01 13:50 | 46.17314 | 11.37370 | 36338 ft | 410 kts | 355° |
| 2026-05-01 13:51 | 46.22941 | 11.36366 | 36342 ft | 410 kts | 355° |
| 2026-05-01 13:51 | 46.28599 | 11.35372 | 36344 ft | 410 kts | 355° |
| 2026-05-01 13:52 | 46.34268 | 11.34377 | 36260 ft | 411 kts | 355° |
| 2026-05-01 13:52 | 46.39950 | 11.33369 | 36257 ft | 411 kts | 355° |
| 2026-05-01 13:53 | 46.45631 | 11.32357 | 36260 ft | 411 kts | 355° |
| 2026-05-01 13:53 | 46.54143 | 11.30531 | 36263 ft | 413 kts | 352° |
| 2026-05-01 13:54 | 46.59809 | 11.29144 | 36264 ft | 413 kts | 353° |
| 2026-05-01 13:54 | 46.65499 | 11.27787 | 35952 ft | 414 kts | 353° |
| 2026-05-01 13:55 | 46.68332 | 11.27128 | 35460 ft | 410 kts | 353° |
| 2026-05-01 13:55 | 46.71109 | 11.26487 | 34969 ft | 407 kts | 353° |
| 2026-05-01 13:55 | 46.73895 | 11.25845 | 34474 ft | 404 kts | 354° |
| 2026-05-01 13:55 | 46.76665 | 11.25205 | 33942 ft | 401 kts | 354° |
| 2026-05-01 13:56 | 46.79410 | 11.24569 | 33449 ft | 397 kts | 354° |
| 2026-05-01 13:56 | 46.82130 | 11.23935 | 32978 ft | 394 kts | 354° |
| 2026-05-01 13:56 | 46.84840 | 11.23373 | 32278 ft | 394 kts | 360° |
| 2026-05-01 13:56 | 46.87608 | 11.23505 | 31225 ft | 403 kts | 5° |
| 2026-05-01 13:57 | 46.90410 | 11.23769 | 30666 ft | 402 kts | 5° |
| 2026-05-01 13:57 | 46.92253 | 11.23947 | 30352 ft | 399 kts | 5° |
| 2026-05-01 13:57 | 46.95929 | 11.24303 | 29683 ft | 392 kts | 5° |
| 2026-05-01 13:57 | 46.98631 | 11.24562 | 29230 ft | 386 kts | 5° |
| 2026-05-01 13:58 | 47.01294 | 11.24813 | 28787 ft | 380 kts | 5° |
| 2026-05-01 13:58 | 47.03907 | 11.25059 | 28367 ft | 374 kts | 6° |
| 2026-05-01 13:58 | 47.06489 | 11.25305 | 27942 ft | 368 kts | 5° |
| 2026-05-01 13:58 | 47.09028 | 11.25548 | 27530 ft | 363 kts | 5° |
| 2026-05-01 13:59 | 47.11504 | 11.25783 | 27129 ft | 359 kts | 5° |
| 2026-05-01 13:59 | 47.13971 | 11.26015 | 26730 ft | 353 kts | 5° |
| 2026-05-01 13:59 | 47.16408 | 11.26248 | 26334 ft | 349 kts | 5° |
| 2026-05-01 13:59 | 47.18824 | 11.26482 | 25927 ft | 346 kts | 5° |
| 2026-05-01 14:00 | 47.21210 | 11.26714 | 25525 ft | 342 kts | 5° |
| 2026-05-01 14:00 | 47.23579 | 11.26941 | 25120 ft | 339 kts | 5° |
| 2026-05-01 14:00 | 47.25928 | 11.27164 | 24697 ft | 338 kts | 5° |
| 2026-05-01 14:00 | 47.28275 | 11.27388 | 24272 ft | 338 kts | 5° |
| 2026-05-01 14:01 | 47.30616 | 11.27608 | 23844 ft | 336 kts | 5° |
| 2026-05-01 14:01 | 47.32944 | 11.27825 | 23374 ft | 334 kts | 6° |
| 2026-05-01 14:01 | 47.35268 | 11.28047 | 22952 ft | 333 kts | 6° |
| 2026-05-01 14:01 | 47.37574 | 11.28273 | 22531 ft | 331 kts | 6° |
| 2026-05-01 14:02 | 47.39834 | 11.28494 | 22120 ft | 329 kts | 6° |
| 2026-05-01 14:02 | 47.42132 | 11.28717 | 21714 ft | 325 kts | 6° |
| 2026-05-01 14:02 | 47.44373 | 11.28933 | 21319 ft | 322 kts | 6° |
| 2026-05-01 14:02 | 47.46580 | 11.29144 | 20926 ft | 320 kts | 6° |
| 2026-05-01 14:03 | 47.48796 | 11.29356 | 20542 ft | 319 kts | 6° |
| 2026-05-01 14:03 | 47.51019 | 11.29568 | 20141 ft | 318 kts | 6° |
| 2026-05-01 14:03 | 47.53223 | 11.29780 | 19780 ft | 317 kts | 6° |
| 2026-05-01 14:03 | 47.55417 | 11.29991 | 19412 ft | 316 kts | 6° |
| 2026-05-01 14:04 | 47.57606 | 11.30198 | 19033 ft | 315 kts | 6° |
| 2026-05-01 14:04 | 47.59794 | 11.30405 | 18651 ft | 315 kts | 6° |
| 2026-05-01 14:04 | 47.61981 | 11.30614 | 18244 ft | 313 kts | 6° |
| 2026-05-01 14:04 | 47.63417 | 11.30752 | 17984 ft | 313 kts | 6° |
| 2026-05-01 14:05 | 47.66322 | 11.31038 | 17475 ft | 312 kts | 6° |
| 2026-05-01 14:05 | 47.68484 | 11.31253 | 17107 ft | 311 kts | 6° |
| 2026-05-01 14:05 | 47.70638 | 11.31465 | 16738 ft | 310 kts | 6° |
| 2026-05-01 14:05 | 47.72788 | 11.31673 | 16373 ft | 310 kts | 6° |
| 2026-05-01 14:06 | 47.74938 | 11.31881 | 16001 ft | 310 kts | 6° |
| 2026-05-01 14:06 | 47.77091 | 11.32068 | 15634 ft | 309 kts | 4° |
| 2026-05-01 14:06 | 47.79247 | 11.32123 | 15270 ft | 310 kts | 2° |
| 2026-05-01 14:06 | 47.81401 | 11.32090 | 14895 ft | 310 kts | 1° |
| 2026-05-01 14:07 | 47.83536 | 11.32018 | 14526 ft | 310 kts | 1° |
| 2026-05-01 14:07 | 47.85694 | 11.31939 | 14154 ft | 310 kts | 1° |
| 2026-05-01 14:07 | 47.87848 | 11.31872 | 13749 ft | 309 kts | 1° |
| 2026-05-01 14:08 | 47.92134 | 11.31774 | 12994 ft | 306 kts | 2° |
| 2026-05-01 14:08 | 47.94259 | 11.31734 | 12610 ft | 305 kts | 2° |
| 2026-05-01 14:08 | 47.96381 | 11.31701 | 12234 ft | 304 kts | 2° |
| 2026-05-01 14:08 | 47.98492 | 11.31670 | 11847 ft | 303 kts | 2° |
| 2026-05-01 14:09 | 48.00594 | 11.31635 | 11556 ft | 300 kts | 2° |
| 2026-05-01 14:09 | 48.02664 | 11.31597 | 11369 ft | 294 kts | 2° |
| 2026-05-01 14:09 | 48.04703 | 11.31560 | 11025 ft | 294 kts | 2° |
| 2026-05-01 14:09 | 48.06743 | 11.31527 | 10701 ft | 293 kts | 2° |
| 2026-05-01 14:10 | 48.08777 | 11.31494 | 10340 ft | 292 kts | 2° |
| 2026-05-01 14:10 | 48.10811 | 11.31461 | 9995 ft | 292 kts | 2° |
| 2026-05-01 14:10 | 48.12816 | 11.31429 | 9607 ft | 291 kts | 3° |
| 2026-05-01 14:10 | 48.14844 | 11.31393 | 9257 ft | 290 kts | 2° |
| 2026-05-01 14:11 | 48.16864 | 11.31358 | 8912 ft | 289 kts | 2° |
| 2026-05-01 14:11 | 48.20862 | 11.31288 | 8318 ft | 283 kts | 2° |
| 2026-05-01 14:11 | 48.22794 | 11.31253 | 8183 ft | 270 kts | 2° |
| 2026-05-01 14:12 | 48.24571 | 11.31604 | 8049 ft | 248 kts | 21° |
| 2026-05-01 14:12 | 48.26057 | 11.32675 | 7934 ft | 229 kts | 38° |
| 2026-05-01 14:12 | 48.27198 | 11.34229 | 7737 ft | 216 kts | 53° |
| 2026-05-01 14:12 | 48.27977 | 11.36107 | 7385 ft | 211 kts | 66° |
| 2026-05-01 14:13 | 48.28621 | 11.38079 | 6998 ft | 211 kts | 65° |
| 2026-05-01 14:13 | 48.29051 | 11.39382 | 6759 ft | 208 kts | 66° |
| 2026-05-01 14:13 | 48.29899 | 11.41943 | 6127 ft | 205 kts | 66° |
| 2026-05-01 14:13 | 48.30539 | 11.43881 | 5691 ft | 204 kts | 66° |
| 2026-05-01 14:14 | 48.31169 | 11.45787 | 5278 ft | 203 kts | 67° |
| 2026-05-01 14:14 | 48.31769 | 11.47645 | 4956 ft | 192 kts | 71° |
| 2026-05-01 14:14 | 48.32033 | 11.49481 | 4864 ft | 171 kts | 84° |
| 2026-05-01 14:14 | 48.32181 | 11.51217 | 4648 ft | 164 kts | 84° |
| 2026-05-01 14:15 | 48.32320 | 11.52868 | 4114 ft | 164 kts | 82° |
| 2026-05-01 14:15 | 48.32558 | 11.54768 | 3291 ft | 189 kts | 78° |
| 2026-05-01 14:15 | 48.32796 | 11.56559 | 3394 ft | 153 kts | 81° |
| 2026-05-01 14:15 | 48.32859 | 11.58150 | 3512 ft | 150 kts | 88° |
| 2026-05-01 14:16 | 48.32911 | 11.59656 | 3486 ft | 143 kts | 85° |
| 2026-05-01 14:16 | 48.32996 | 11.61097 | 3368 ft | 136 kts | 83° |
| 2026-05-01 14:16 | 48.33093 | 11.62489 | 3215 ft | 132 kts | 84° |
| 2026-05-01 14:16 | 48.33193 | 11.63862 | 3037 ft | 133 kts | 84° |
| 2026-05-01 14:17 | 48.33297 | 11.65222 | 2879 ft | 128 kts | 82° |